createdAt,value
2017-11-01T00:22:48.800Z,86.85
2017-11-01T00:23:29.385Z,86.66
2017-11-01T00:24:10.005Z,86.76
2017-11-01T00:24:50.625Z,87.13
2017-11-01T00:25:31.197Z,86.38
2017-11-01T00:26:11.774Z,86.47
2017-11-01T00:26:52.355Z,86.38
2017-11-01T00:27:33.006Z,86.47
2017-11-01T00:28:13.623Z,86.47
2017-11-01T00:28:54.292Z,86.57
2017-11-01T00:29:35.062Z,86.38
2017-11-01T00:30:15.598Z,86.57
2017-11-01T00:30:56.356Z,86.57
2017-11-01T00:31:36.919Z,86.66
2017-11-01T00:32:17.602Z,86.57
2017-11-01T00:32:58.194Z,86.57
2017-11-01T00:33:38.906Z,86.47
2017-11-01T00:34:19.547Z,86.94
2017-11-01T00:35:00.179Z,86.76
2017-11-01T00:35:40.887Z,86.76
2017-11-01T00:36:21.467Z,86.76
2017-11-01T00:37:02.119Z,86.47
2017-11-01T00:37:42.880Z,86.38
2017-11-01T00:38:23.649Z,86.28
2017-11-01T00:39:04.254Z,86.57
2017-11-01T00:39:44.920Z,86.47
2017-11-01T00:40:25.466Z,86.57
2017-11-01T00:41:06.116Z,86.76
2017-11-01T00:41:46.747Z,86.66
2017-11-01T00:42:27.382Z,86.57
2017-11-01T00:43:07.996Z,86.76
2017-11-01T00:43:48.586Z,86.76
2017-11-01T00:44:29.224Z,86.28
2017-11-01T00:45:09.823Z,86.66
2017-11-01T00:45:50.454Z,86.85
2017-11-01T00:46:31.183Z,86.85
2017-11-01T00:47:11.898Z,86.85
2017-11-01T00:47:52.388Z,86.76
2017-11-01T00:48:33.071Z,86.09
2017-11-01T00:49:13.679Z,86.57
2017-11-01T00:49:54.285Z,86.76
2017-11-01T00:50:34.927Z,86.85
2017-11-01T00:51:15.510Z,86.85
2017-11-01T00:51:56.124Z,86.76
2017-11-01T00:52:36.708Z,86.66
2017-11-01T00:53:17.303Z,86.57
2017-11-01T00:53:57.900Z,86.76
2017-11-01T00:54:38.490Z,86.76
2017-11-01T00:55:19.116Z,86.85
2017-11-01T00:55:59.736Z,86.66
2017-11-01T00:56:40.317Z,86.66
2017-11-01T00:57:20.976Z,86.85
2017-11-01T00:58:01.602Z,86.66
2017-11-01T00:58:42.167Z,86.76
2017-11-01T00:59:22.764Z,86.76
2017-11-01T01:00:03.375Z,86.28
2017-11-01T01:00:43.971Z,86.28
2017-11-01T01:01:24.588Z,86.28
2017-11-01T01:02:05.180Z,86.28
2017-11-01T01:02:45.795Z,86.28
2017-11-01T01:03:26.498Z,86.76
2017-11-01T01:04:07.169Z,86.76
2017-11-01T01:04:47.734Z,86.85
2017-11-01T01:05:28.320Z,86.76
2017-11-01T01:06:08.981Z,86.57
2017-11-01T01:06:49.638Z,86.85
2017-11-01T01:07:30.161Z,86.94
2017-11-01T01:08:10.768Z,86.57
2017-11-01T01:08:51.366Z,86.57
2017-11-01T01:09:31.951Z,86.47
2017-11-01T01:10:12.546Z,86.09
2017-11-01T01:10:53.155Z,86.47
2017-11-01T01:11:33.798Z,86.66
2017-11-01T01:12:14.402Z,86.76
2017-11-01T01:12:55.056Z,86.76
2017-11-01T01:13:35.641Z,86.76
2017-11-01T01:14:16.224Z,86.85
2017-11-01T01:14:56.840Z,86.66
2017-11-01T01:15:37.438Z,86.85
2017-11-01T01:16:18.054Z,86.76
2017-11-01T01:16:58.651Z,86.66
2017-11-01T01:17:39.285Z,86.57
2017-11-01T01:18:19.894Z,86.76
2017-11-01T01:19:00.510Z,86.85
2017-11-01T01:19:41.078Z,86.76
2017-11-01T01:20:21.705Z,86.38
2017-11-01T01:21:02.361Z,86.57
2017-11-01T01:21:42.951Z,86.38
2017-11-01T01:22:23.588Z,86.76
2017-11-01T01:23:04.243Z,87.13
2017-11-01T01:23:44.840Z,86.85
2017-11-01T01:24:25.466Z,87.23
2017-11-01T01:25:06.099Z,87.23
2017-11-01T01:25:46.663Z,87.32
2017-11-01T01:26:27.287Z,86.94
2017-11-01T01:27:07.924Z,87.23
2017-11-01T01:27:48.495Z,87.42
2017-11-01T01:28:29.122Z,87.52
2017-11-01T01:29:09.741Z,87.42
2017-11-01T01:29:50.321Z,87.04
2017-11-01T01:30:30.917Z,87.42
2017-11-01T01:31:11.509Z,87.23
2017-11-01T01:31:52.134Z,87.52
2017-11-01T01:32:32.707Z,87.42
2017-11-01T01:33:13.309Z,87.8
2017-11-01T01:33:53.982Z,87.71
2017-11-01T01:34:34.569Z,87.9
2017-11-01T01:35:15.284Z,87.52
2017-11-01T01:35:55.925Z,87.8
2017-11-01T01:36:36.503Z,87.71
2017-11-01T01:37:17.102Z,87.71
2017-11-01T01:37:57.709Z,87.52
2017-11-01T01:38:38.332Z,88.09
2017-11-01T01:39:18.954Z,88.09
2017-11-01T01:39:59.558Z,88.09
2017-11-01T01:40:40.158Z,88.09
2017-11-01T01:41:20.738Z,88.09
2017-11-01T01:42:01.342Z,88.09
2017-11-01T01:42:41.982Z,88.09
2017-11-01T01:43:22.634Z,87.71
2017-11-01T01:44:03.221Z,87.99
2017-11-01T01:44:43.845Z,88.28
2017-11-01T01:45:24.431Z,88.18
2017-11-01T01:46:05.043Z,88.56
2017-11-01T01:46:45.756Z,88.75
2017-11-01T01:47:26.286Z,88.37
2017-11-01T01:48:06.936Z,88.66
2017-11-01T01:48:47.554Z,88.46
2017-11-01T01:49:28.219Z,88.46
2017-11-01T01:50:08.821Z,88.94
2017-11-01T01:50:49.420Z,88.85
2017-11-01T01:51:29.997Z,89.61
2017-11-01T01:52:10.611Z,89.51
2017-11-01T01:52:51.224Z,89.23
2017-11-01T01:53:31.824Z,89.42
2017-11-01T01:54:12.492Z,89.42
2017-11-01T01:54:53.038Z,89.42
2017-11-01T01:55:33.709Z,89.23
2017-11-01T01:56:14.247Z,89.23
2017-11-01T01:56:54.875Z,89.23
2017-11-01T01:57:35.467Z,89.61
2017-11-01T01:58:16.068Z,89.89
2017-11-01T01:58:56.677Z,89.7
2017-11-01T01:59:37.297Z,89.7
2017-11-01T02:00:17.909Z,89.89
2017-11-01T02:00:58.509Z,90.18
2017-11-01T02:01:39.115Z,90.08
2017-11-01T02:02:19.716Z,89.8
2017-11-01T02:03:00.298Z,89.7
2017-11-01T02:03:40.921Z,90.37
2017-11-01T02:04:21.507Z,90.08
2017-11-01T02:05:02.144Z,90.28
2017-11-01T02:05:42.738Z,89.99
2017-11-01T02:06:23.345Z,90.66
2017-11-01T02:07:03.944Z,90.18
2017-11-01T02:07:44.534Z,90.08
2017-11-01T02:08:25.135Z,90.66
2017-11-01T02:09:05.766Z,90.66
2017-11-01T02:09:46.367Z,90.84
2017-11-01T02:10:27.030Z,90.75
2017-11-01T02:11:07.616Z,90.94
2017-11-01T02:11:48.275Z,90.94
2017-11-01T02:12:28.828Z,90.66
2017-11-01T02:13:09.472Z,91.03
2017-11-01T02:13:50.103Z,91.22
2017-11-01T02:14:30.673Z,91.42
2017-11-01T02:15:11.289Z,91.32
2017-11-01T02:15:51.940Z,91.61
2017-11-01T02:16:32.520Z,91.13
2017-11-01T02:17:13.145Z,91.61
2017-11-01T02:17:53.764Z,91.51
2017-11-01T02:18:34.420Z,91.8
2017-11-01T02:19:15.143Z,91.8
2017-11-01T02:19:55.676Z,91.89
2017-11-01T02:20:36.336Z,91.32
2017-11-01T02:21:17.034Z,91.7
2017-11-01T02:21:57.669Z,92.08
2017-11-01T02:22:38.375Z,92.27
2017-11-01T02:23:18.948Z,92.36
2017-11-01T02:23:59.601Z,92.18
2017-11-01T02:24:40.186Z,92.08
2017-11-01T02:25:20.791Z,91.7
2017-11-01T02:26:01.437Z,91.61
2017-11-01T02:26:42.019Z,92.08
2017-11-01T02:27:22.640Z,91.99
2017-11-01T02:28:03.229Z,91.7
2017-11-01T02:28:43.857Z,91.7
2017-11-01T02:29:24.510Z,91.89
2017-11-01T02:30:05.107Z,91.7
2017-11-01T02:30:45.728Z,91.99
2017-11-01T02:31:26.322Z,91.99
2017-11-01T02:32:06.919Z,91.89
2017-11-01T02:32:47.505Z,92.56
2017-11-01T02:33:28.124Z,92.27
2017-11-01T02:34:08.798Z,92.27
2017-11-01T02:34:49.382Z,93.13
2017-11-01T02:35:30.002Z,92.65
2017-11-01T02:36:10.589Z,92.65
2017-11-01T02:36:51.197Z,92.46
2017-11-01T02:37:31.773Z,92.46
2017-11-01T02:38:12.393Z,93.04
2017-11-01T02:38:52.975Z,93.23
2017-11-01T02:39:33.586Z,93.32
2017-11-01T02:40:14.184Z,93.23
2017-11-01T02:40:54.791Z,93.32
2017-11-01T02:41:35.381Z,93.51
2017-11-01T02:42:15.988Z,93.51
2017-11-01T02:42:56.596Z,93.13
2017-11-01T02:43:37.193Z,93.51
2017-11-01T02:44:17.802Z,93.32
2017-11-01T02:44:58.378Z,93.41
2017-11-01T02:45:38.983Z,93.6
2017-11-01T02:46:19.574Z,93.32
2017-11-01T02:47:00.166Z,93.32
2017-11-01T02:47:40.785Z,93.89
2017-11-01T02:48:21.425Z,93.89
2017-11-01T02:49:02.063Z,93.89
2017-11-01T02:49:42.647Z,93.89
2017-11-01T02:50:23.261Z,93.79
2017-11-01T02:51:03.840Z,94.18
2017-11-01T02:51:44.419Z,94.46
2017-11-01T02:52:25.004Z,94.08
2017-11-01T02:53:05.603Z,94.27
2017-11-01T02:53:46.188Z,94.27
2017-11-01T02:54:26.784Z,94.18
2017-11-01T02:55:07.357Z,94.37
2017-11-01T02:55:47.964Z,94.56
2017-11-01T02:56:28.555Z,94.27
2017-11-01T02:57:09.147Z,94.18
2017-11-01T02:57:49.719Z,94.37
2017-11-01T02:58:30.316Z,94.18
2017-11-01T02:59:10.922Z,93.98
2017-11-01T02:59:51.468Z,93.89
2017-11-01T03:00:32.044Z,94.18
2017-11-01T03:01:12.618Z,94.18
2017-11-01T03:01:53.218Z,94.27
2017-11-01T03:02:33.808Z,94.37
2017-11-01T03:03:14.401Z,94.18
2017-11-01T03:03:54.984Z,94.08
2017-11-01T03:04:35.571Z,94.27
2017-11-01T03:05:16.156Z,94.27
2017-11-01T03:05:56.744Z,94.37
2017-11-01T03:06:37.316Z,94.27
2017-11-01T03:07:17.891Z,94.18
2017-11-01T03:07:58.479Z,94.37
2017-11-01T03:08:39.064Z,94.56
2017-11-01T03:09:19.678Z,94.65
2017-11-01T03:10:00.259Z,94.56
2017-11-01T03:10:40.856Z,94.65
2017-11-01T03:11:21.433Z,94.56
2017-11-01T03:12:02.025Z,94.93
2017-11-01T03:12:42.598Z,95.22
2017-11-01T03:13:23.185Z,94.74
2017-11-01T03:14:03.765Z,95.12
2017-11-01T03:14:44.341Z,94.65
2017-11-01T03:15:24.931Z,94.93
2017-11-01T03:16:05.515Z,95.03
2017-11-01T03:16:46.097Z,95.79
2017-11-01T03:17:26.673Z,95.7
2017-11-01T03:18:07.250Z,95.6
2017-11-01T03:18:47.875Z,95.22
2017-11-01T03:19:28.440Z,95.7
2017-11-01T03:20:09.025Z,95.7
2017-11-01T03:20:49.605Z,95.7
2017-11-01T03:21:30.200Z,96.36
2017-11-01T03:22:10.789Z,95.89
2017-11-01T03:22:51.373Z,95.89
2017-11-01T03:23:31.975Z,95.79
2017-11-01T03:24:12.527Z,96.26
2017-11-01T03:24:53.121Z,95.98
2017-11-01T03:25:33.710Z,95.89
2017-11-01T03:26:14.303Z,96.08
2017-11-01T03:26:54.887Z,96.26
2017-11-01T03:27:35.483Z,95.89
2017-11-01T03:28:16.075Z,96.55
2017-11-01T03:28:56.657Z,96.74
2017-11-01T03:29:37.232Z,96.84
2017-11-01T03:30:17.812Z,96.84
2017-11-01T03:30:58.377Z,96.84
2017-11-01T03:31:38.965Z,96.84
2017-11-01T03:32:19.562Z,97.41
2017-11-01T03:33:00.121Z,97.41
2017-11-01T03:33:40.717Z,97.22
2017-11-01T03:34:21.321Z,97.41
2017-11-01T03:35:01.903Z,97.5
2017-11-01T03:35:42.481Z,97.13
2017-11-01T03:36:23.070Z,97.13
2017-11-01T03:37:03.656Z,97.88
2017-11-01T03:37:44.276Z,97.69
2017-11-01T03:38:24.855Z,97.6
2017-11-01T03:39:05.440Z,98.08
2017-11-01T03:39:46.050Z,97.98
2017-11-01T03:40:26.618Z,97.69
2017-11-01T03:41:07.237Z,97.5
2017-11-01T03:41:47.908Z,97.98
2017-11-01T03:42:28.534Z,98.27
2017-11-01T03:43:09.128Z,98.46
2017-11-01T03:43:49.711Z,98.08
2017-11-01T03:44:30.324Z,98.17
2017-11-01T03:45:10.873Z,98.08
2017-11-01T03:45:51.449Z,98.74
2017-11-01T03:46:32.067Z,98.65
2017-11-01T03:47:12.610Z,98.65
2017-11-01T03:47:53.190Z,98.74
2017-11-01T03:48:33.786Z,99.12
2017-11-01T03:49:14.422Z,98.83
2017-11-01T03:49:55.026Z,98.65
2017-11-01T03:50:35.626Z,98.65
2017-11-01T03:51:16.226Z,98.36
2017-11-01T03:51:56.823Z,99.02
2017-11-01T03:52:37.418Z,98.93
2017-11-01T03:53:18.011Z,98.93
2017-11-01T03:53:58.590Z,99.02
2017-11-01T03:54:39.180Z,98.93
2017-11-01T03:55:19.731Z,99.02
2017-11-01T03:56:00.329Z,99.6
2017-11-01T03:56:40.893Z,99.41
2017-11-01T03:57:21.496Z,99.31
2017-11-01T03:58:02.089Z,99.31
2017-11-01T03:58:42.698Z,99.88
2017-11-01T03:59:23.377Z,99.69
2017-11-01T04:00:03.947Z,99.69
2017-11-01T04:00:44.565Z,99.88
2017-11-01T04:01:25.157Z,99.69
2017-11-01T04:02:05.747Z,99.69
2017-11-01T04:02:46.344Z,99.41
2017-11-01T04:03:26.928Z,99.31
2017-11-01T04:04:07.481Z,99.6
2017-11-01T04:04:48.100Z,99.69
2017-11-01T04:05:28.717Z,99.69
2017-11-01T04:06:09.293Z,99.41
2017-11-01T04:06:49.883Z,99.5
2017-11-01T04:07:30.484Z,99.41
2017-11-01T04:08:11.065Z,99.69
2017-11-01T04:08:51.656Z,99.69
2017-11-01T04:09:32.258Z,99.88
2017-11-01T04:10:12.828Z,99.69
2017-11-01T04:10:53.403Z,99.99
2017-11-01T04:11:34.006Z,99.99
2017-11-01T04:12:14.605Z,99.99
2017-11-01T04:12:55.239Z,99.98
2017-11-01T04:13:35.769Z,99.99
2017-11-01T04:14:16.361Z,99.99
2017-11-01T04:14:56.929Z,99.99
2017-11-01T04:15:37.537Z,99.99
2017-11-01T04:16:18.171Z,99.88
2017-11-01T04:16:58.760Z,99.99
2017-11-01T04:17:39.350Z,99.99
2017-11-01T04:18:19.933Z,99.99
2017-11-01T04:19:00.527Z,99.99
2017-11-01T04:19:41.098Z,99.99
2017-11-01T04:20:21.676Z,99.99
2017-11-01T04:21:02.249Z,99.99
2017-11-01T04:21:42.829Z,99.99
2017-11-01T04:22:23.420Z,99.99
2017-11-01T04:23:03.980Z,99.99
2017-11-01T04:23:44.575Z,99.99
2017-11-01T04:24:25.186Z,99.99
2017-11-01T04:25:05.760Z,99.99
2017-11-01T04:25:46.375Z,99.99
2017-11-01T04:26:26.927Z,99.99
2017-11-01T04:27:07.522Z,99.99
2017-11-01T04:27:48.137Z,99.99
2017-11-01T04:28:28.724Z,99.99
2017-11-01T04:29:09.347Z,99.99
2017-11-01T04:29:49.929Z,99.99
2017-11-01T04:30:30.545Z,99.99
2017-11-01T04:31:11.142Z,99.99
2017-11-01T04:31:51.747Z,99.99
2017-11-01T04:32:32.312Z,99.99
2017-11-01T04:33:12.889Z,99.99
2017-11-01T04:33:53.478Z,99.99
2017-11-01T04:34:34.086Z,99.99
2017-11-01T04:35:14.707Z,99.99
2017-11-01T04:35:55.290Z,99.99
2017-11-01T04:36:35.887Z,99.99
2017-11-01T04:37:16.474Z,99.99
2017-11-01T04:37:57.086Z,99.99
2017-11-01T04:38:37.659Z,99.99
2017-11-01T04:39:18.252Z,99.99
2017-11-01T04:39:58.847Z,99.99
2017-11-01T04:40:39.430Z,99.99
2017-11-01T04:41:20.024Z,99.99
2017-11-01T04:42:00.630Z,99.99
2017-11-01T04:42:41.230Z,99.99
2017-11-01T04:43:21.847Z,99.99
2017-11-01T04:44:02.430Z,99.99
2017-11-01T04:44:43.041Z,99.99
2017-11-01T04:45:23.624Z,99.99
2017-11-01T04:46:04.207Z,99.99
2017-11-01T04:46:44.819Z,99.99
2017-11-01T04:47:25.401Z,99.99
2017-11-01T04:48:06.014Z,99.99
2017-11-01T04:48:46.559Z,99.99
2017-11-01T04:49:27.142Z,99.99
2017-11-01T04:50:07.716Z,99.99
2017-11-01T04:50:48.293Z,99.99
2017-11-01T04:51:28.873Z,99.99
2017-11-01T04:52:09.459Z,99.99
2017-11-01T04:52:50.048Z,99.99
2017-11-01T04:53:30.788Z,99.99
2017-11-01T04:54:11.322Z,99.99
2017-11-01T04:54:51.901Z,99.99
2017-11-01T04:55:32.484Z,99.99
2017-11-01T04:56:13.077Z,99.99
2017-11-01T04:56:53.647Z,99.99
2017-11-01T04:57:34.235Z,99.99
2017-11-01T04:58:14.849Z,99.99
2017-11-01T04:58:55.467Z,99.99
2017-11-01T04:59:36.021Z,99.99
2017-11-01T05:00:16.923Z,99.99
2017-11-01T05:00:57.834Z,99.99
2017-11-01T05:01:38.841Z,99.99
2017-11-01T05:02:19.448Z,99.99
2017-11-01T05:03:00.051Z,99.99
2017-11-01T05:03:40.678Z,99.99
2017-11-01T05:04:21.473Z,99.99
2017-11-01T05:05:02.089Z,99.99
2017-11-01T05:05:42.637Z,99.99
2017-11-01T05:06:23.224Z,99.99
2017-11-01T05:07:03.804Z,99.99
2017-11-01T05:07:44.388Z,99.99
2017-11-01T05:08:24.976Z,99.99
2017-11-01T05:09:05.743Z,99.99
2017-11-01T05:09:46.213Z,99.99
2017-11-01T05:10:26.798Z,99.99
2017-11-01T05:11:07.381Z,99.99
2017-11-01T05:11:47.968Z,99.99
2017-11-01T05:12:28.568Z,99.99
2017-11-01T05:13:09.190Z,99.99
2017-11-01T05:13:49.768Z,99.99
2017-11-01T05:14:30.365Z,99.99
2017-11-01T05:15:10.978Z,99.99
2017-11-01T05:15:51.581Z,99.99
2017-11-01T05:16:32.142Z,99.99
2017-11-01T05:17:12.724Z,99.99
2017-11-01T05:17:53.318Z,99.99
2017-11-01T05:18:33.882Z,99.99
2017-11-01T05:19:14.472Z,99.99
2017-11-01T05:19:55.070Z,99.99
2017-11-01T05:20:35.651Z,99.99
2017-11-01T05:21:16.237Z,99.99
2017-11-01T05:21:56.853Z,99.99
2017-11-01T05:22:37.422Z,99.99
2017-11-01T05:23:18.022Z,99.99
2017-11-01T05:23:58.602Z,99.99
2017-11-01T05:24:39.255Z,99.99
2017-11-01T05:25:19.865Z,99.99
2017-11-01T05:26:00.502Z,99.99
2017-11-01T05:26:41.066Z,99.99
2017-11-01T05:27:21.689Z,99.99
2017-11-01T05:28:02.286Z,99.99
2017-11-01T05:28:42.852Z,99.99
2017-11-01T05:29:23.452Z,99.99
2017-11-01T05:30:03.996Z,99.99
2017-11-01T05:30:44.571Z,99.99
2017-11-01T05:31:25.184Z,99.99
2017-11-01T05:32:05.771Z,99.99
2017-11-01T05:32:46.361Z,99.99
2017-11-01T05:33:26.968Z,99.99
2017-11-01T05:34:07.535Z,99.99
2017-11-01T05:34:48.124Z,99.99
2017-11-01T05:35:28.686Z,99.99
2017-11-01T05:36:09.331Z,99.99
2017-11-01T05:36:49.916Z,99.99
2017-11-01T05:37:30.503Z,99.99
2017-11-01T05:38:11.089Z,99.99
2017-11-01T05:38:51.668Z,99.99
2017-11-01T05:39:32.271Z,99.99
2017-11-01T05:40:12.846Z,99.99
2017-11-01T05:40:53.409Z,99.99
2017-11-01T05:41:33.977Z,99.99
2017-11-01T05:42:14.595Z,99.99
2017-11-01T05:42:55.188Z,99.99
2017-11-01T05:43:35.792Z,99.99
2017-11-01T05:44:16.428Z,99.99
2017-11-01T05:44:57.014Z,99.99
2017-11-01T05:45:37.610Z,99.99
2017-11-01T05:46:18.193Z,99.99
2017-11-01T05:46:58.787Z,99.99
2017-11-01T05:47:39.391Z,99.99
2017-11-01T05:48:19.996Z,99.99
2017-11-01T05:49:00.605Z,99.99
2017-11-01T05:49:41.202Z,99.99
2017-11-01T05:50:21.791Z,99.99
2017-11-01T05:51:02.381Z,99.99
2017-11-01T05:51:43.002Z,99.99
2017-11-01T05:52:23.650Z,99.99
2017-11-01T05:53:04.232Z,99.99
2017-11-01T05:53:44.867Z,99.99
2017-11-01T05:54:25.477Z,99.99
2017-11-01T05:55:07.916Z,99.99
2017-11-01T05:56:55.985Z,99.99
2017-11-01T05:57:37.302Z,99.99
2017-11-01T05:58:18.593Z,99.99
2017-11-01T05:58:59.204Z,99.99
2017-11-01T05:59:39.778Z,99.99
2017-11-01T06:00:20.332Z,99.99
2017-11-01T06:01:00.907Z,99.99
2017-11-01T06:01:41.498Z,99.99
2017-11-01T06:02:22.083Z,99.99
2017-11-01T06:03:02.659Z,99.99
2017-11-01T06:03:43.257Z,99.99
2017-11-01T06:04:23.942Z,99.99
2017-11-01T06:05:04.551Z,99.99
2017-11-01T06:05:45.165Z,99.99
2017-11-01T06:06:25.829Z,99.99
2017-11-01T06:07:06.543Z,99.99
2017-11-01T06:07:47.128Z,99.99
2017-11-01T06:08:27.717Z,99.99
2017-11-01T06:09:08.306Z,99.99
2017-11-01T06:09:48.874Z,99.99
2017-11-01T06:10:29.457Z,99.99
2017-11-01T06:11:10.050Z,99.99
2017-11-01T06:11:50.633Z,99.99
2017-11-01T06:12:31.302Z,99.99
2017-11-01T06:13:11.829Z,99.99
2017-11-01T06:13:52.459Z,99.99
2017-11-01T06:14:33.060Z,99.99
2017-11-01T06:15:13.664Z,99.99
2017-11-01T06:15:54.257Z,99.99
2017-11-01T06:16:34.878Z,99.99
2017-11-01T06:17:15.461Z,99.99
2017-11-01T06:17:56.062Z,99.99
2017-11-01T06:18:36.667Z,99.99
2017-11-01T06:19:17.270Z,99.99
2017-11-01T06:19:57.899Z,99.99
2017-11-01T06:20:38.553Z,99.99
2017-11-01T06:21:19.157Z,99.99
2017-11-01T06:21:59.739Z,99.99
2017-11-01T06:22:40.339Z,99.99
2017-11-01T06:23:20.923Z,99.99
2017-11-01T06:24:01.532Z,99.99
2017-11-01T06:24:42.132Z,99.99
2017-11-01T06:25:23.018Z,99.99
2017-11-01T06:26:03.749Z,99.99
2017-11-01T06:26:44.486Z,99.99
2017-11-01T06:27:25.110Z,99.99
2017-11-01T06:28:05.762Z,99.99
2017-11-01T06:28:46.356Z,99.99
2017-11-01T06:29:26.968Z,99.99
2017-11-01T06:30:07.598Z,99.99
2017-11-01T06:30:48.194Z,99.99
2017-11-01T06:31:28.826Z,99.99
2017-11-01T06:32:09.451Z,99.99
2017-11-01T06:32:50.057Z,99.99
2017-11-01T06:33:30.695Z,99.99
2017-11-01T06:34:11.308Z,99.99
2017-11-01T06:34:51.883Z,99.99
2017-11-01T06:35:32.493Z,99.99
2017-11-01T06:36:13.119Z,99.99
2017-11-01T06:36:53.710Z,99.99
2017-11-01T06:37:34.427Z,99.99
2017-11-01T06:38:15.211Z,99.99
2017-11-01T06:38:55.978Z,99.99
2017-11-01T06:39:36.778Z,99.99
2017-11-01T06:40:17.462Z,99.99
2017-11-01T06:40:58.171Z,99.99
2017-11-01T06:41:38.822Z,99.99
2017-11-01T06:42:19.531Z,99.99
2017-11-01T06:43:00.246Z,99.99
2017-11-01T06:43:40.998Z,99.99
2017-11-01T06:44:21.635Z,99.99
2017-11-01T06:45:02.289Z,99.99
2017-11-01T06:45:42.968Z,99.99
2017-11-01T06:46:23.658Z,99.99
2017-11-01T06:47:04.409Z,99.99
2017-11-01T06:47:45.111Z,99.99
2017-11-01T06:48:25.897Z,99.99
2017-11-01T06:49:06.590Z,99.99
2017-11-01T06:49:47.456Z,99.99
2017-11-01T06:50:28.097Z,99.99
2017-11-01T06:51:08.725Z,99.99
2017-11-01T06:51:49.327Z,99.99
2017-11-01T06:52:29.920Z,99.99
2017-11-01T06:53:10.514Z,99.99
2017-11-01T06:53:51.127Z,99.99
2017-11-01T06:54:31.735Z,99.99
2017-11-01T06:55:12.354Z,99.99
2017-11-01T06:55:52.998Z,99.99
2017-11-01T06:56:33.614Z,99.99
2017-11-01T06:57:14.406Z,99.99
2017-11-01T06:57:54.943Z,99.99
2017-11-01T06:58:35.553Z,99.99
2017-11-01T06:59:16.205Z,99.99
2017-11-01T06:59:56.822Z,99.99
2017-11-01T07:00:37.469Z,99.99
2017-11-01T07:01:18.080Z,99.99
2017-11-01T07:01:58.644Z,99.99
2017-11-01T07:02:39.218Z,99.99
2017-11-01T07:03:19.851Z,99.99
2017-11-01T07:04:00.463Z,99.99
2017-11-01T07:04:41.120Z,99.99
2017-11-01T07:05:21.689Z,99.99
2017-11-01T07:06:02.337Z,99.99
2017-11-01T07:06:42.964Z,99.99
2017-11-01T07:07:23.580Z,99.99
2017-11-01T07:08:04.190Z,99.99
2017-11-01T07:08:44.833Z,99.99
2017-11-01T07:09:25.508Z,99.99
2017-11-01T07:10:06.111Z,99.99
2017-11-01T07:10:46.728Z,99.99
2017-11-01T07:11:27.377Z,99.99
2017-11-01T07:12:07.990Z,99.99
2017-11-01T07:12:48.585Z,99.99
2017-11-01T07:13:29.230Z,99.99
2017-11-01T07:14:09.868Z,99.99
2017-11-01T07:14:50.505Z,99.99
2017-11-01T07:15:31.111Z,99.99
2017-11-01T07:16:11.725Z,99.99
2017-11-01T07:16:52.337Z,99.99
2017-11-01T07:17:32.929Z,99.99
2017-11-01T07:18:13.563Z,99.99
2017-11-01T07:18:54.160Z,99.99
2017-11-01T07:19:34.796Z,99.99
2017-11-01T07:20:15.415Z,99.99
2017-11-01T07:20:56.054Z,99.99
2017-11-01T07:21:36.698Z,99.99
2017-11-01T07:22:17.342Z,99.99
2017-11-01T07:22:57.943Z,99.99
2017-11-01T07:23:38.563Z,99.99
2017-11-01T07:24:19.698Z,99.99
2017-11-01T07:25:00.378Z,99.99
2017-11-01T07:25:41.032Z,99.99
2017-11-01T07:26:21.746Z,99.99
2017-11-01T07:27:02.352Z,99.99
2017-11-01T07:27:42.988Z,99.99
2017-11-01T07:28:23.681Z,99.99
2017-11-01T07:29:04.310Z,99.99
2017-11-01T07:29:44.890Z,99.99
2017-11-01T07:30:25.533Z,99.99
2017-11-01T07:31:06.115Z,99.99
2017-11-01T07:31:46.726Z,99.99
2017-11-01T07:32:27.326Z,99.99
2017-11-01T07:33:07.948Z,99.99
2017-11-01T07:33:48.527Z,99.99
2017-11-01T07:34:29.169Z,99.99
2017-11-01T07:35:09.981Z,99.99
2017-11-01T07:35:50.858Z,99.99
2017-11-01T07:36:31.624Z,99.99
2017-11-01T07:37:12.286Z,99.99
2017-11-01T07:37:52.866Z,99.99
2017-11-01T07:38:33.451Z,99.99
2017-11-01T07:39:14.054Z,99.99
2017-11-01T07:39:54.673Z,99.99
2017-11-01T07:40:35.312Z,99.99
2017-11-01T07:41:15.910Z,99.99
2017-11-01T07:41:56.515Z,99.99
2017-11-01T07:42:37.114Z,99.99
2017-11-01T07:43:17.717Z,99.99
2017-11-01T07:43:58.313Z,99.99
2017-11-01T07:44:38.966Z,99.99
2017-11-01T07:45:19.574Z,99.99
2017-11-01T07:46:00.249Z,99.99
2017-11-01T07:46:40.892Z,99.99
2017-11-01T07:47:21.484Z,99.99
2017-11-01T07:48:02.089Z,99.99
2017-11-01T07:48:42.716Z,99.99
2017-11-01T07:49:23.405Z,99.99
2017-11-01T07:50:04.033Z,99.99
2017-11-01T07:50:44.676Z,99.99
2017-11-01T07:51:25.256Z,99.99
2017-11-01T07:52:06.213Z,99.99
2017-11-01T07:52:47.482Z,99.99
2017-11-01T07:53:28.277Z,99.99
2017-11-01T07:54:09.725Z,99.99
2017-11-01T07:54:50.809Z,99.99
2017-11-01T07:55:31.416Z,99.99
2017-11-01T07:56:12.348Z,99.99
2017-11-01T07:56:53.180Z,99.99
2017-11-01T07:57:33.819Z,99.99
2017-11-01T07:58:14.423Z,99.99
2017-11-01T07:58:55.062Z,99.99
2017-11-01T07:59:35.908Z,99.99
2017-11-01T08:00:16.596Z,99.99
2017-11-01T08:00:57.247Z,99.99
2017-11-01T08:01:37.973Z,99.99
2017-11-01T08:02:18.485Z,99.99
2017-11-01T08:02:59.051Z,99.99
2017-11-01T08:03:39.943Z,99.99
2017-11-01T08:04:20.517Z,99.99
2017-11-01T08:05:01.167Z,99.99
2017-11-01T08:05:41.764Z,99.99
2017-11-01T08:06:22.403Z,99.99
2017-11-01T08:07:03.095Z,99.99
2017-11-01T08:07:43.717Z,99.99
2017-11-01T08:08:24.344Z,99.99
2017-11-01T08:09:04.960Z,99.99
2017-11-01T08:09:45.556Z,99.99
2017-11-01T08:10:26.196Z,99.99
2017-11-01T08:11:06.849Z,99.99
2017-11-01T08:11:47.421Z,99.99
2017-11-01T08:12:28.018Z,99.99
2017-11-01T08:13:08.705Z,99.99
2017-11-01T08:13:49.348Z,99.99
2017-11-01T08:14:29.962Z,99.99
2017-11-01T08:15:10.614Z,99.99
2017-11-01T08:15:51.210Z,99.99
2017-11-01T08:16:31.838Z,99.99
2017-11-01T08:17:12.738Z,99.99
2017-11-01T08:17:53.425Z,99.99
2017-11-01T08:18:34.118Z,99.99
2017-11-01T08:19:14.773Z,99.99
2017-11-01T08:19:55.355Z,99.99
2017-11-01T08:20:35.979Z,99.99
2017-11-01T08:21:16.591Z,99.99
2017-11-01T08:21:57.240Z,99.99
2017-11-01T08:22:37.836Z,99.99
2017-11-01T08:23:18.486Z,99.99
2017-11-01T08:23:59.113Z,99.99
2017-11-01T08:24:39.786Z,99.99
2017-11-01T08:25:20.396Z,99.99
2017-11-01T08:26:01.084Z,99.99
2017-11-01T08:26:41.714Z,99.99
2017-11-01T08:27:22.422Z,99.99
2017-11-01T08:28:03.008Z,99.99
2017-11-01T08:28:43.838Z,99.99
2017-11-01T08:29:24.458Z,99.99
2017-11-01T08:30:05.079Z,99.99
2017-11-01T08:30:45.735Z,99.99
2017-11-01T08:31:26.327Z,99.99
2017-11-01T08:32:06.966Z,99.99
2017-11-01T08:32:47.732Z,99.99
2017-11-01T08:33:28.337Z,99.99
2017-11-01T08:34:08.971Z,99.99
2017-11-01T08:34:49.615Z,99.99
2017-11-01T08:35:30.228Z,99.99
2017-11-01T08:36:10.833Z,99.99
2017-11-01T08:36:51.442Z,99.99
2017-11-01T08:37:32.060Z,99.99
2017-11-01T08:38:12.748Z,99.99
2017-11-01T08:38:53.447Z,99.99
2017-11-01T08:39:34.056Z,99.99
2017-11-01T08:40:14.772Z,99.99
2017-11-01T08:40:55.275Z,99.99
2017-11-01T08:41:35.900Z,99.99
2017-11-01T08:42:16.550Z,99.99
2017-11-01T08:42:57.161Z,99.99
2017-11-01T08:43:37.782Z,99.99
2017-11-01T08:44:18.408Z,99.99
2017-11-01T08:44:59.004Z,99.99
2017-11-01T08:45:39.607Z,99.99
2017-11-01T08:46:20.236Z,99.99
2017-11-01T08:47:00.857Z,99.99
2017-11-01T08:47:41.902Z,99.99
2017-11-01T08:48:22.491Z,99.99
2017-11-01T08:49:03.076Z,99.99
2017-11-01T08:49:43.673Z,99.99
2017-11-01T08:50:24.306Z,99.99
2017-11-01T08:51:04.931Z,99.99
2017-11-01T08:51:45.521Z,99.99
2017-11-01T08:52:26.159Z,99.99
2017-11-01T08:53:06.765Z,99.99
2017-11-01T08:53:47.344Z,99.99
2017-11-01T08:54:27.986Z,99.99
2017-11-01T08:55:09.210Z,99.99
2017-11-01T08:55:49.974Z,99.99
2017-11-01T08:56:30.587Z,99.99
2017-11-01T08:57:11.194Z,99.99
2017-11-01T08:57:51.815Z,99.99
2017-11-01T08:58:32.411Z,99.99
2017-11-01T08:59:13.005Z,99.99
2017-11-01T08:59:53.606Z,99.99
2017-11-01T09:00:34.224Z,99.99
2017-11-01T09:01:14.799Z,99.99
2017-11-01T09:01:55.388Z,99.99
2017-11-01T09:02:36.148Z,99.99
2017-11-01T09:03:16.673Z,99.99
2017-11-01T09:03:57.289Z,99.99
2017-11-01T09:04:37.861Z,99.99
2017-11-01T09:05:18.451Z,99.99
2017-11-01T09:05:59.026Z,99.99
2017-11-01T09:06:39.607Z,99.99
2017-11-01T09:07:20.197Z,99.99